sensor_id;sensor_type;location;lat;lon;timestamp;P1;durP1;ratioP1;P2;durP2;ratioP2
68234;SDS011;55052;52.056;5.296;2023-05-02T00:01:42;27.45;;;14.52;;
68234;SDS011;55052;52.056;5.296;2023-05-02T00:04:09;27.70;;;15.50;;
68234;SDS011;55052;52.056;5.296;2023-05-02T00:06:36;24.20;;;13.60;;
68234;SDS011;55052;52.056;5.296;2023-05-02T00:09:03;25.52;;;14.30;;
68234;SDS011;55052;52.056;5.296;2023-05-02T00:11:29;23.33;;;12.85;;
68234;SDS011;55052;52.056;5.296;2023-05-02T00:13:56;28.88;;;13.70;;
68234;SDS011;55052;52.056;5.296;2023-05-02T00:16:23;25.55;;;13.32;;
68234;SDS011;55052;52.056;5.296;2023-05-02T00:18:50;23.13;;;13.52;;
68234;SDS011;55052;52.056;5.296;2023-05-02T00:21:17;23.08;;;12.93;;
68234;SDS011;55052;52.056;5.296;2023-05-02T00:23:43;22.42;;;12.95;;
68234;SDS011;55052;52.056;5.296;2023-05-02T00:26:10;26.75;;;13.13;;
68234;SDS011;55052;52.056;5.296;2023-05-02T00:28:37;22.20;;;12.80;;
68234;SDS011;55052;52.056;5.296;2023-05-02T00:31:05;22.83;;;11.77;;
68234;SDS011;55052;52.056;5.296;2023-05-02T00:33:32;23.20;;;12.38;;
68234;SDS011;55052;52.056;5.296;2023-05-02T00:35:59;23.35;;;12.57;;
68234;SDS011;55052;52.056;5.296;2023-05-02T00:38:25;23.67;;;12.88;;
68234;SDS011;55052;52.056;5.296;2023-05-02T00:40:52;23.95;;;12.80;;
68234;SDS011;55052;52.056;5.296;2023-05-02T00:43:19;21.90;;;11.55;;
68234;SDS011;55052;52.056;5.296;2023-05-02T00:45:46;23.13;;;11.90;;
68234;SDS011;55052;52.056;5.296;2023-05-02T00:48:13;21.67;;;12.35;;
68234;SDS011;55052;52.056;5.296;2023-05-02T00:50:41;23.15;;;11.85;;
68234;SDS011;55052;52.056;5.296;2023-05-02T00:53:08;21.92;;;11.98;;
68234;SDS011;55052;52.056;5.296;2023-05-02T00:55:36;21.48;;;11.73;;
68234;SDS011;55052;52.056;5.296;2023-05-02T00:58:04;19.45;;;11.38;;
68234;SDS011;55052;52.056;5.296;2023-05-02T01:15:16;15.30;;;8.52;;
68234;SDS011;55052;52.056;5.296;2023-05-02T01:17:47;18.20;;;8.65;;
68234;SDS011;55052;52.056;5.296;2023-05-02T01:20:17;16.63;;;7.65;;
68234;SDS011;55052;52.056;5.296;2023-05-02T01:22:46;13.65;;;7.75;;
68234;SDS011;55052;52.056;5.296;2023-05-02T01:30:37;16.63;;;5.75;;
68234;SDS011;55052;52.056;5.296;2023-05-02T01:33:10;11.85;;;4.93;;
68234;SDS011;55052;52.056;5.296;2023-05-02T01:35:39;13.60;;;4.50;;
68234;SDS011;55052;52.056;5.296;2023-05-02T01:38:08;13.43;;;4.38;;
68234;SDS011;55052;52.056;5.296;2023-05-02T01:40:43;11.02;;;3.95;;
68234;SDS011;55052;52.056;5.296;2023-05-02T01:43:12;12.60;;;3.90;;
68234;SDS011;55052;52.056;5.296;2023-05-02T01:45:41;12.60;;;4.20;;
68234;SDS011;55052;52.056;5.296;2023-05-02T01:48:10;11.30;;;3.53;;
68234;SDS011;55052;52.056;5.296;2023-05-02T01:50:40;10.25;;;3.28;;
68234;SDS011;55052;52.056;5.296;2023-05-02T01:53:08;9.23;;;3.38;;
68234;SDS011;55052;52.056;5.296;2023-05-02T01:55:39;7.65;;;3.60;;
68234;SDS011;55052;52.056;5.296;2023-05-02T01:58:09;7.95;;;3.10;;
68234;SDS011;55052;52.056;5.296;2023-05-02T02:00:37;9.63;;;2.90;;
68234;SDS011;55052;52.056;5.296;2023-05-02T02:03:05;7.72;;;2.70;;
68234;SDS011;55052;52.056;5.296;2023-05-02T02:05:34;7.97;;;2.92;;
68234;SDS011;55052;52.056;5.296;2023-05-02T02:08:02;10.38;;;3.63;;
68234;SDS011;55052;52.056;5.296;2023-05-02T02:10:31;12.07;;;3.47;;
68234;SDS011;55052;52.056;5.296;2023-05-02T02:13:06;8.95;;;3.13;;
68234;SDS011;55052;52.056;5.296;2023-05-02T02:15:39;9.40;;;3.47;;
68234;SDS011;55052;52.056;5.296;2023-05-02T02:18:11;9.95;;;2.78;;
68234;SDS011;55052;52.056;5.296;2023-05-02T02:20:43;9.27;;;3.22;;
68234;SDS011;55052;52.056;5.296;2023-05-02T02:23:12;10.48;;;3.30;;
68234;SDS011;55052;52.056;5.296;2023-05-02T02:25:41;9.55;;;3.10;;
68234;SDS011;55052;52.056;5.296;2023-05-02T02:28:10;8.77;;;2.70;;
68234;SDS011;55052;52.056;5.296;2023-05-02T02:30:37;11.50;;;2.78;;
68234;SDS011;55052;52.056;5.296;2023-05-02T02:33:04;8.10;;;2.85;;
68234;SDS011;55052;52.056;5.296;2023-05-02T02:35:33;9.73;;;2.55;;
68234;SDS011;55052;52.056;5.296;2023-05-02T02:40:50;6.60;;;2.60;;
68234;SDS011;55052;52.056;5.296;2023-05-02T02:43:24;8.50;;;2.30;;
68234;SDS011;55052;52.056;5.296;2023-05-02T02:48:49;6.07;;;1.92;;
68234;SDS011;55052;52.056;5.296;2023-05-02T02:51:33;10.00;;;2.15;;
68234;SDS011;55052;52.056;5.296;2023-05-02T02:54:23;8.32;;;2.00;;
68234;SDS011;55052;52.056;5.296;2023-05-02T02:57:06;7.35;;;1.80;;
68234;SDS011;55052;52.056;5.296;2023-05-02T02:59:58;5.72;;;2.08;;
68234;SDS011;55052;52.056;5.296;2023-05-02T03:02:45;7.90;;;2.10;;
68234;SDS011;55052;52.056;5.296;2023-05-02T03:05:13;5.22;;;1.60;;
68234;SDS011;55052;52.056;5.296;2023-05-02T03:07:40;6.95;;;1.98;;
68234;SDS011;55052;52.056;5.296;2023-05-02T03:10:07;4.28;;;1.75;;
68234;SDS011;55052;52.056;5.296;2023-05-02T03:12:34;6.13;;;1.70;;
68234;SDS011;55052;52.056;5.296;2023-05-02T03:15:06;8.30;;;2.10;;
68234;SDS011;55052;52.056;5.296;2023-05-02T03:17:37;7.72;;;1.98;;
68234;SDS011;55052;52.056;5.296;2023-05-02T03:20:04;5.10;;;1.90;;
68234;SDS011;55052;52.056;5.296;2023-05-02T03:22:31;5.13;;;1.98;;
68234;SDS011;55052;52.056;5.296;2023-05-02T03:24:58;6.03;;;1.88;;
68234;SDS011;55052;52.056;5.296;2023-05-02T03:27:24;6.88;;;2.08;;
68234;SDS011;55052;52.056;5.296;2023-05-02T03:29:51;9.68;;;2.38;;
68234;SDS011;55052;52.056;5.296;2023-05-02T03:32:18;9.32;;;2.25;;
68234;SDS011;55052;52.056;5.296;2023-05-02T03:34:45;8.48;;;2.17;;
68234;SDS011;55052;52.056;5.296;2023-05-02T03:37:11;9.23;;;2.42;;
68234;SDS011;55052;52.056;5.296;2023-05-02T03:39:38;10.32;;;2.58;;
68234;SDS011;55052;52.056;5.296;2023-05-02T03:42:05;10.63;;;2.10;;
68234;SDS011;55052;52.056;5.296;2023-05-02T03:44:32;6.80;;;1.95;;
68234;SDS011;55052;52.056;5.296;2023-05-02T03:46:58;9.82;;;2.58;;
68234;SDS011;55052;52.056;5.296;2023-05-02T03:49:25;7.38;;;1.95;;
68234;SDS011;55052;52.056;5.296;2023-05-02T03:51:52;5.47;;;1.98;;
68234;SDS011;55052;52.056;5.296;2023-05-02T03:54:19;10.48;;;2.30;;
68234;SDS011;55052;52.056;5.296;2023-05-02T03:56:46;9.27;;;2.17;;
68234;SDS011;55052;52.056;5.296;2023-05-02T03:59:13;9.95;;;2.42;;
68234;SDS011;55052;52.056;5.296;2023-05-02T04:01:41;8.68;;;2.00;;
68234;SDS011;55052;52.056;5.296;2023-05-02T04:04:08;8.20;;;2.20;;
68234;SDS011;55052;52.056;5.296;2023-05-02T04:06:36;9.63;;;2.40;;
68234;SDS011;55052;52.056;5.296;2023-05-02T04:09:03;7.80;;;2.13;;
68234;SDS011;55052;52.056;5.296;2023-05-02T04:11:30;7.20;;;1.73;;
68234;SDS011;55052;52.056;5.296;2023-05-02T04:13:57;9.23;;;2.20;;
68234;SDS011;55052;52.056;5.296;2023-05-02T04:16:24;7.68;;;2.05;;
68234;SDS011;55052;52.056;5.296;2023-05-02T04:18:51;7.25;;;2.05;;
68234;SDS011;55052;52.056;5.296;2023-05-02T04:21:18;7.47;;;1.92;;
68234;SDS011;55052;52.056;5.296;2023-05-02T04:23:45;7.65;;;1.95;;
68234;SDS011;55052;52.056;5.296;2023-05-02T04:26:11;8.32;;;2.13;;
68234;SDS011;55052;52.056;5.296;2023-05-02T04:28:39;6.70;;;1.90;;
68234;SDS011;55052;52.056;5.296;2023-05-02T04:31:06;5.38;;;2.00;;
68234;SDS011;55052;52.056;5.296;2023-05-02T04:33:33;8.63;;;2.17;;
68234;SDS011;55052;52.056;5.296;2023-05-02T04:36:00;8.25;;;1.90;;
68234;SDS011;55052;52.056;5.296;2023-05-02T04:38:27;4.88;;;1.73;;
68234;SDS011;55052;52.056;5.296;2023-05-02T04:40:53;8.48;;;1.95;;
68234;SDS011;55052;52.056;5.296;2023-05-02T04:43:20;5.70;;;1.98;;
68234;SDS011;55052;52.056;5.296;2023-05-02T04:45:49;8.52;;;2.22;;
68234;SDS011;55052;52.056;5.296;2023-05-02T04:48:16;6.32;;;2.13;;
68234;SDS011;55052;52.056;5.296;2023-05-02T04:50:44;6.93;;;2.67;;
68234;SDS011;55052;52.056;5.296;2023-05-02T04:53:11;7.20;;;1.90;;
68234;SDS011;55052;52.056;5.296;2023-05-02T04:55:38;5.95;;;1.90;;
68234;SDS011;55052;52.056;5.296;2023-05-02T04:58:05;8.18;;;2.00;;
68234;SDS011;55052;52.056;5.296;2023-05-02T05:00:32;7.47;;;2.05;;
68234;SDS011;55052;52.056;5.296;2023-05-02T05:02:59;7.50;;;2.05;;
68234;SDS011;55052;52.056;5.296;2023-05-02T05:05:27;6.93;;;2.30;;
68234;SDS011;55052;52.056;5.296;2023-05-02T05:07:54;6.63;;;2.17;;
68234;SDS011;55052;52.056;5.296;2023-05-02T05:10:20;13.07;;;2.65;;
68234;SDS011;55052;52.056;5.296;2023-05-02T05:12:47;14.73;;;3.20;;
68234;SDS011;55052;52.056;5.296;2023-05-02T05:15:14;7.40;;;2.70;;
68234;SDS011;55052;52.056;5.296;2023-05-02T05:17:41;13.68;;;3.03;;
68234;SDS011;55052;52.056;5.296;2023-05-02T05:20:08;10.52;;;3.20;;
68234;SDS011;55052;52.056;5.296;2023-05-02T05:22:38;8.60;;;3.13;;
68234;SDS011;55052;52.056;5.296;2023-05-02T05:25:09;9.05;;;2.65;;
68234;SDS011;55052;52.056;5.296;2023-05-02T05:27:36;11.30;;;3.15;;
68234;SDS011;55052;52.056;5.296;2023-05-02T05:30:04;10.68;;;2.72;;
68234;SDS011;55052;52.056;5.296;2023-05-02T05:32:32;12.38;;;3.10;;
68234;SDS011;55052;52.056;5.296;2023-05-02T05:34:59;10.52;;;3.10;;
68234;SDS011;55052;52.056;5.296;2023-05-02T05:37:26;9.57;;;2.90;;
68234;SDS011;55052;52.056;5.296;2023-05-02T05:39:52;10.63;;;2.90;;
68234;SDS011;55052;52.056;5.296;2023-05-02T05:42:19;15.65;;;3.55;;
68234;SDS011;55052;52.056;5.296;2023-05-02T05:44:46;12.10;;;3.00;;
68234;SDS011;55052;52.056;5.296;2023-05-02T05:47:17;11.80;;;3.33;;
68234;SDS011;55052;52.056;5.296;2023-05-02T05:49:51;12.05;;;3.17;;
68234;SDS011;55052;52.056;5.296;2023-05-02T05:52:21;11.98;;;3.30;;
68234;SDS011;55052;52.056;5.296;2023-05-02T05:54:48;15.05;;;3.67;;
68234;SDS011;55052;52.056;5.296;2023-05-02T05:57:15;12.98;;;2.80;;
68234;SDS011;55052;52.056;5.296;2023-05-02T05:59:41;16.00;;;2.78;;
68234;SDS011;55052;52.056;5.296;2023-05-02T06:02:08;9.80;;;3.13;;
68234;SDS011;55052;52.056;5.296;2023-05-02T06:04:35;9.93;;;3.00;;
68234;SDS011;55052;52.056;5.296;2023-05-02T06:07:02;11.60;;;2.90;;
68234;SDS011;55052;52.056;5.296;2023-05-02T06:09:29;13.73;;;2.80;;
68234;SDS011;55052;52.056;5.296;2023-05-02T06:11:56;15.30;;;2.95;;
68234;SDS011;55052;52.056;5.296;2023-05-02T06:14:23;14.52;;;2.80;;
68234;SDS011;55052;52.056;5.296;2023-05-02T06:16:49;13.00;;;3.13;;
68234;SDS011;55052;52.056;5.296;2023-05-02T06:19:16;11.93;;;2.83;;
68234;SDS011;55052;52.056;5.296;2023-05-02T06:21:43;10.00;;;2.50;;
68234;SDS011;55052;52.056;5.296;2023-05-02T06:24:10;8.95;;;3.15;;
68234;SDS011;55052;52.056;5.296;2023-05-02T06:26:37;10.60;;;2.80;;
68234;SDS011;55052;52.056;5.296;2023-05-02T06:29:03;10.10;;;2.80;;
68234;SDS011;55052;52.056;5.296;2023-05-02T06:31:30;15.52;;;2.80;;
68234;SDS011;55052;52.056;5.296;2023-05-02T06:33:57;11.80;;;2.90;;
68234;SDS011;55052;52.056;5.296;2023-05-02T06:36:24;10.38;;;2.65;;
68234;SDS011;55052;52.056;5.296;2023-05-02T06:38:51;10.30;;;2.25;;
68234;SDS011;55052;52.056;5.296;2023-05-02T06:41:17;10.68;;;2.20;;
68234;SDS011;55052;52.056;5.296;2023-05-02T06:43:45;7.75;;;2.30;;
68234;SDS011;55052;52.056;5.296;2023-05-02T06:46:12;8.95;;;2.30;;
68234;SDS011;55052;52.056;5.296;2023-05-02T06:48:39;9.30;;;2.40;;
68234;SDS011;55052;52.056;5.296;2023-05-02T06:51:06;13.50;;;2.50;;
68234;SDS011;55052;52.056;5.296;2023-05-02T06:53:33;8.52;;;2.45;;
68234;SDS011;55052;52.056;5.296;2023-05-02T06:56:00;7.10;;;2.25;;
68234;SDS011;55052;52.056;5.296;2023-05-02T06:58:26;12.82;;;2.88;;
68234;SDS011;55052;52.056;5.296;2023-05-02T07:00:53;11.93;;;2.40;;
68234;SDS011;55052;52.056;5.296;2023-05-02T07:03:20;8.75;;;2.28;;
68234;SDS011;55052;52.056;5.296;2023-05-02T07:05:47;6.38;;;2.50;;
68234;SDS011;55052;52.056;5.296;2023-05-02T07:08:14;9.45;;;2.20;;
68234;SDS011;55052;52.056;5.296;2023-05-02T07:10:41;8.52;;;1.95;;
68234;SDS011;55052;52.056;5.296;2023-05-02T07:13:08;11.45;;;2.60;;
68234;SDS011;55052;52.056;5.296;2023-05-02T07:15:34;9.05;;;2.25;;
68234;SDS011;55052;52.056;5.296;2023-05-02T07:18:01;10.55;;;2.38;;
68234;SDS011;55052;52.056;5.296;2023-05-02T07:20:28;9.20;;;2.30;;
68234;SDS011;55052;52.056;5.296;2023-05-02T07:22:55;7.65;;;2.00;;
68234;SDS011;55052;52.056;5.296;2023-05-02T07:25:22;6.20;;;2.20;;
68234;SDS011;55052;52.056;5.296;2023-05-02T07:27:49;11.40;;;2.20;;
68234;SDS011;55052;52.056;5.296;2023-05-02T07:30:16;11.32;;;2.15;;
68234;SDS011;55052;52.056;5.296;2023-05-02T07:32:43;8.57;;;2.47;;
68234;SDS011;55052;52.056;5.296;2023-05-02T07:35:10;6.82;;;1.88;;
68234;SDS011;55052;52.056;5.296;2023-05-02T07:37:37;12.45;;;2.80;;
68234;SDS011;55052;52.056;5.296;2023-05-02T07:40:04;9.13;;;2.30;;
68234;SDS011;55052;52.056;5.296;2023-05-02T07:42:33;13.13;;;2.58;;
68234;SDS011;55052;52.056;5.296;2023-05-02T07:45:00;6.55;;;2.58;;
68234;SDS011;55052;52.056;5.296;2023-05-02T07:47:27;9.88;;;3.17;;
68234;SDS011;55052;52.056;5.296;2023-05-02T07:49:54;12.00;;;2.83;;
68234;SDS011;55052;52.056;5.296;2023-05-02T07:52:21;11.50;;;3.15;;
68234;SDS011;55052;52.056;5.296;2023-05-02T07:54:48;11.82;;;2.53;;
68234;SDS011;55052;52.056;5.296;2023-05-02T07:57:16;5.55;;;2.10;;
68234;SDS011;55052;52.056;5.296;2023-05-02T07:59:43;12.68;;;2.45;;
68234;SDS011;55052;52.056;5.296;2023-05-02T08:02:10;8.32;;;3.10;;
68234;SDS011;55052;52.056;5.296;2023-05-02T08:04:39;7.78;;;2.40;;
68234;SDS011;55052;52.056;5.296;2023-05-02T08:07:06;14.38;;;3.05;;
68234;SDS011;55052;52.056;5.296;2023-05-02T08:09:33;10.70;;;2.47;;
68234;SDS011;55052;52.056;5.296;2023-05-02T08:12:00;10.35;;;2.80;;
68234;SDS011;55052;52.056;5.296;2023-05-02T08:14:30;12.40;;;2.63;;
68234;SDS011;55052;52.056;5.296;2023-05-02T08:16:57;10.32;;;2.58;;
68234;SDS011;55052;52.056;5.296;2023-05-02T08:19:25;6.05;;;2.22;;
68234;SDS011;55052;52.056;5.296;2023-05-02T08:21:52;7.80;;;2.17;;
68234;SDS011;55052;52.056;5.296;2023-05-02T08:24:19;9.35;;;2.03;;
68234;SDS011;55052;52.056;5.296;2023-05-02T08:26:47;12.30;;;2.20;;
68234;SDS011;55052;52.056;5.296;2023-05-02T08:29:13;9.40;;;2.28;;
68234;SDS011;55052;52.056;5.296;2023-05-02T08:31:40;4.68;;;2.08;;
68234;SDS011;55052;52.056;5.296;2023-05-02T08:34:07;8.63;;;2.20;;
68234;SDS011;55052;52.056;5.296;2023-05-02T08:36:34;10.20;;;2.30;;
68234;SDS011;55052;52.056;5.296;2023-05-02T08:39:02;8.93;;;2.50;;
68234;SDS011;55052;52.056;5.296;2023-05-02T08:41:29;5.97;;;2.13;;
68234;SDS011;55052;52.056;5.296;2023-05-02T08:43:56;10.63;;;1.90;;
68234;SDS011;55052;52.056;5.296;2023-05-02T08:46:24;6.38;;;1.80;;
68234;SDS011;55052;52.056;5.296;2023-05-02T08:48:52;12.35;;;2.28;;
68234;SDS011;55052;52.056;5.296;2023-05-02T08:51:24;6.50;;;1.90;;
68234;SDS011;55052;52.056;5.296;2023-05-02T08:56:21;6.25;;;1.77;;
68234;SDS011;55052;52.056;5.296;2023-05-02T08:58:48;7.60;;;2.10;;
68234;SDS011;55052;52.056;5.296;2023-05-02T09:01:15;5.05;;;2.00;;
68234;SDS011;55052;52.056;5.296;2023-05-02T09:03:45;10.93;;;1.88;;
68234;SDS011;55052;52.056;5.296;2023-05-02T09:06:16;3.28;;;1.80;;
68234;SDS011;55052;52.056;5.296;2023-05-02T09:08:45;7.10;;;1.70;;
68234;SDS011;55052;52.056;5.296;2023-05-02T09:11:17;7.90;;;2.05;;
68234;SDS011;55052;52.056;5.296;2023-05-02T09:13:48;8.60;;;1.98;;
68234;SDS011;55052;52.056;5.296;2023-05-02T09:16:20;4.05;;;1.50;;
68234;SDS011;55052;52.056;5.296;2023-05-02T09:18:49;8.10;;;1.92;;
68234;SDS011;55052;52.056;5.296;2023-05-02T09:21:24;3.90;;;1.63;;
68234;SDS011;55052;52.056;5.296;2023-05-02T09:24:00;6.93;;;1.75;;
68234;SDS011;55052;52.056;5.296;2023-05-02T09:26:28;5.75;;;1.70;;
68234;SDS011;55052;52.056;5.296;2023-05-02T09:29:03;5.50;;;1.63;;
68234;SDS011;55052;52.056;5.296;2023-05-02T09:31:31;8.80;;;2.38;;
68234;SDS011;55052;52.056;5.296;2023-05-02T09:34:20;8.35;;;2.38;;
68234;SDS011;55052;52.056;5.296;2023-05-02T09:36:48;8.88;;;1.98;;
68234;SDS011;55052;52.056;5.296;2023-05-02T09:39:19;9.15;;;2.22;;
68234;SDS011;55052;52.056;5.296;2023-05-02T09:41:50;8.20;;;1.92;;
68234;SDS011;55052;52.056;5.296;2023-05-02T09:44:18;6.60;;;2.00;;
68234;SDS011;55052;52.056;5.296;2023-05-02T09:46:47;4.63;;;1.80;;
68234;SDS011;55052;52.056;5.296;2023-05-02T09:49:16;6.45;;;1.95;;
68234;SDS011;55052;52.056;5.296;2023-05-02T09:51:47;5.85;;;1.90;;
68234;SDS011;55052;52.056;5.296;2023-05-02T09:57:01;6.60;;;1.90;;
68234;SDS011;55052;52.056;5.296;2023-05-02T09:59:28;6.35;;;2.20;;
68234;SDS011;55052;52.056;5.296;2023-05-02T10:01:56;7.03;;;1.90;;
68234;SDS011;55052;52.056;5.296;2023-05-02T10:04:25;5.25;;;2.00;;
68234;SDS011;55052;52.056;5.296;2023-05-02T10:06:53;7.82;;;2.08;;
68234;SDS011;55052;52.056;5.296;2023-05-02T10:09:20;7.35;;;2.03;;
68234;SDS011;55052;52.056;5.296;2023-05-02T10:11:51;4.40;;;2.00;;
68234;SDS011;55052;52.056;5.296;2023-05-02T10:14:21;6.32;;;2.00;;
68234;SDS011;55052;52.056;5.296;2023-05-02T10:22:22;4.40;;;1.98;;
68234;SDS011;55052;52.056;5.296;2023-05-02T10:24:50;5.10;;;1.92;;
68234;SDS011;55052;52.056;5.296;2023-05-02T10:27:18;7.43;;;1.90;;
68234;SDS011;55052;52.056;5.296;2023-05-02T10:29:45;7.05;;;2.13;;
68234;SDS011;55052;52.056;5.296;2023-05-02T10:32:12;7.47;;;2.00;;
68234;SDS011;55052;52.056;5.296;2023-05-02T10:34:40;10.38;;;2.15;;
68234;SDS011;55052;52.056;5.296;2023-05-02T10:37:07;10.02;;;2.10;;
68234;SDS011;55052;52.056;5.296;2023-05-02T10:39:36;7.53;;;2.28;;
68234;SDS011;55052;52.056;5.296;2023-05-02T10:42:03;10.82;;;2.40;;
68234;SDS011;55052;52.056;5.296;2023-05-02T10:44:37;7.55;;;2.28;;
68234;SDS011;55052;52.056;5.296;2023-05-02T10:47:24;7.70;;;2.15;;
68234;SDS011;55052;52.056;5.296;2023-05-02T10:49:58;8.32;;;2.40;;
68234;SDS011;55052;52.056;5.296;2023-05-02T10:52:37;8.57;;;2.22;;
68234;SDS011;55052;52.056;5.296;2023-05-02T10:55:13;5.43;;;2.03;;
68234;SDS011;55052;52.056;5.296;2023-05-02T11:00:29;8.30;;;2.40;;
68234;SDS011;55052;52.056;5.296;2023-05-02T11:03:00;12.30;;;2.60;;
68234;SDS011;55052;52.056;5.296;2023-05-02T11:05:27;6.15;;;2.08;;
68234;SDS011;55052;52.056;5.296;2023-05-02T11:10:40;9.18;;;2.30;;
68234;SDS011;55052;52.056;5.296;2023-05-02T11:13:08;7.65;;;2.20;;
68234;SDS011;55052;52.056;5.296;2023-05-02T11:18:11;5.70;;;2.00;;
68234;SDS011;55052;52.056;5.296;2023-05-02T11:20:39;7.82;;;2.25;;
68234;SDS011;55052;52.056;5.296;2023-05-02T11:25:41;4.47;;;2.20;;
68234;SDS011;55052;52.056;5.296;2023-05-02T11:33:57;5.50;;;2.20;;
68234;SDS011;55052;52.056;5.296;2023-05-02T11:36:30;7.25;;;2.40;;
68234;SDS011;55052;52.056;5.296;2023-05-02T11:39:01;10.27;;;2.38;;
68234;SDS011;55052;52.056;5.296;2023-05-02T11:41:39;8.52;;;2.50;;
68234;SDS011;55052;52.056;5.296;2023-05-02T11:44:09;12.60;;;2.50;;
68234;SDS011;55052;52.056;5.296;2023-05-02T11:46:35;9.55;;;3.17;;
68234;SDS011;55052;52.056;5.296;2023-05-02T11:49:03;8.75;;;2.25;;
68234;SDS011;55052;52.056;5.296;2023-05-02T11:51:34;17.20;;;2.83;;
68234;SDS011;55052;52.056;5.296;2023-05-02T11:54:01;3.95;;;2.03;;
68234;SDS011;55052;52.056;5.296;2023-05-02T11:56:29;6.88;;;2.28;;
68234;SDS011;55052;52.056;5.296;2023-05-02T11:58:57;7.72;;;2.92;;
68234;SDS011;55052;52.056;5.296;2023-05-02T12:01:25;4.63;;;2.05;;
68234;SDS011;55052;52.056;5.296;2023-05-02T12:04:06;8.10;;;2.63;;
68234;SDS011;55052;52.056;5.296;2023-05-02T12:06:33;11.13;;;2.90;;
68234;SDS011;55052;52.056;5.296;2023-05-02T12:09:13;9.15;;;2.63;;
68234;SDS011;55052;52.056;5.296;2023-05-02T12:11:45;9.02;;;2.70;;
68234;SDS011;55052;52.056;5.296;2023-05-02T12:14:29;9.60;;;2.75;;
68234;SDS011;55052;52.056;5.296;2023-05-02T12:16:58;7.13;;;2.63;;
68234;SDS011;55052;52.056;5.296;2023-05-02T12:19:28;9.07;;;2.95;;
68234;SDS011;55052;52.056;5.296;2023-05-02T12:21:55;9.85;;;2.75;;
68234;SDS011;55052;52.056;5.296;2023-05-02T12:24:23;7.75;;;2.60;;
68234;SDS011;55052;52.056;5.296;2023-05-02T12:27:05;8.95;;;2.90;;
68234;SDS011;55052;52.056;5.296;2023-05-02T12:29:41;10.27;;;2.65;;
68234;SDS011;55052;52.056;5.296;2023-05-02T12:32:09;7.65;;;2.85;;
68234;SDS011;55052;52.056;5.296;2023-05-02T12:34:37;7.55;;;2.55;;
68234;SDS011;55052;52.056;5.296;2023-05-02T12:37:05;9.05;;;2.85;;
68234;SDS011;55052;52.056;5.296;2023-05-02T12:39:34;8.70;;;2.55;;
68234;SDS011;55052;52.056;5.296;2023-05-02T12:42:15;7.70;;;2.85;;
68234;SDS011;55052;52.056;5.296;2023-05-02T12:44:43;6.72;;;2.95;;
68234;SDS011;55052;52.056;5.296;2023-05-02T12:47:12;9.13;;;2.90;;
68234;SDS011;55052;52.056;5.296;2023-05-02T12:52:16;7.80;;;2.60;;
68234;SDS011;55052;52.056;5.296;2023-05-02T12:54:47;13.43;;;3.00;;
68234;SDS011;55052;52.056;5.296;2023-05-02T12:57:23;11.75;;;3.35;;
68234;SDS011;55052;52.056;5.296;2023-05-02T12:59:51;9.25;;;2.80;;
68234;SDS011;55052;52.056;5.296;2023-05-02T13:02:21;9.35;;;2.53;;
68234;SDS011;55052;52.056;5.296;2023-05-02T13:04:48;8.13;;;2.47;;
68234;SDS011;55052;52.056;5.296;2023-05-02T13:07:15;9.13;;;2.58;;
68234;SDS011;55052;52.056;5.296;2023-05-02T13:09:42;9.43;;;2.95;;
68234;SDS011;55052;52.056;5.296;2023-05-02T13:12:08;5.50;;;2.50;;
68234;SDS011;55052;52.056;5.296;2023-05-02T13:14:35;10.75;;;2.53;;
68234;SDS011;55052;52.056;5.296;2023-05-02T13:17:02;8.45;;;3.00;;
68234;SDS011;55052;52.056;5.296;2023-05-02T13:19:29;7.13;;;2.60;;
68234;SDS011;55052;52.056;5.296;2023-05-02T13:21:56;10.13;;;2.72;;
68234;SDS011;55052;52.056;5.296;2023-05-02T13:24:24;7.50;;;2.67;;
68234;SDS011;55052;52.056;5.296;2023-05-02T13:26:51;9.65;;;2.53;;
68234;SDS011;55052;52.056;5.296;2023-05-02T13:29:17;8.30;;;2.55;;
68234;SDS011;55052;52.056;5.296;2023-05-02T13:31:44;11.63;;;2.53;;
68234;SDS011;55052;52.056;5.296;2023-05-02T13:34:11;7.75;;;2.80;;
68234;SDS011;55052;52.056;5.296;2023-05-02T13:36:38;11.60;;;2.72;;
68234;SDS011;55052;52.056;5.296;2023-05-02T13:39:11;5.97;;;2.17;;
68234;SDS011;55052;52.056;5.296;2023-05-02T13:41:39;10.55;;;2.55;;
68234;SDS011;55052;52.056;5.296;2023-05-02T13:44:05;7.07;;;2.70;;
68234;SDS011;55052;52.056;5.296;2023-05-02T13:46:34;6.43;;;2.15;;
68234;SDS011;55052;52.056;5.296;2023-05-02T13:49:03;6.72;;;2.40;;
68234;SDS011;55052;52.056;5.296;2023-05-02T13:51:33;8.85;;;2.88;;
68234;SDS011;55052;52.056;5.296;2023-05-02T13:54:00;5.80;;;2.28;;
68234;SDS011;55052;52.056;5.296;2023-05-02T13:56:27;10.73;;;2.63;;
68234;SDS011;55052;52.056;5.296;2023-05-02T13:58:54;5.80;;;2.20;;
68234;SDS011;55052;52.056;5.296;2023-05-02T14:01:21;7.43;;;2.20;;
68234;SDS011;55052;52.056;5.296;2023-05-02T14:03:48;10.07;;;2.60;;
68234;SDS011;55052;52.056;5.296;2023-05-02T14:06:15;6.95;;;2.20;;
68234;SDS011;55052;52.056;5.296;2023-05-02T14:08:42;9.32;;;2.13;;
68234;SDS011;55052;52.056;5.296;2023-05-02T14:11:10;8.32;;;2.38;;
68234;SDS011;55052;52.056;5.296;2023-05-02T14:13:36;6.18;;;2.20;;
68234;SDS011;55052;52.056;5.296;2023-05-02T14:16:03;10.98;;;2.40;;
68234;SDS011;55052;52.056;5.296;2023-05-02T14:18:30;7.10;;;2.20;;
68234;SDS011;55052;52.056;5.296;2023-05-02T14:20:57;7.50;;;2.25;;
68234;SDS011;55052;52.056;5.296;2023-05-02T14:23:25;8.45;;;2.55;;
68234;SDS011;55052;52.056;5.296;2023-05-02T14:25:53;8.02;;;2.42;;
68234;SDS011;55052;52.056;5.296;2023-05-02T14:28:21;8.05;;;2.30;;
68234;SDS011;55052;52.056;5.296;2023-05-02T14:30:48;7.93;;;2.20;;
68234;SDS011;55052;52.056;5.296;2023-05-02T14:33:15;6.25;;;2.17;;
68234;SDS011;55052;52.056;5.296;2023-05-02T14:35:42;7.07;;;2.10;;
68234;SDS011;55052;52.056;5.296;2023-05-02T14:38:09;7.75;;;2.47;;
68234;SDS011;55052;52.056;5.296;2023-05-02T14:40:36;5.10;;;1.92;;
68234;SDS011;55052;52.056;5.296;2023-05-02T14:43:03;7.40;;;2.40;;
68234;SDS011;55052;52.056;5.296;2023-05-02T14:45:30;9.15;;;2.20;;
68234;SDS011;55052;52.056;5.296;2023-05-02T14:47:57;7.65;;;1.73;;
68234;SDS011;55052;52.056;5.296;2023-05-02T14:50:24;8.48;;;2.22;;
68234;SDS011;55052;52.056;5.296;2023-05-02T14:52:51;6.57;;;2.17;;
68234;SDS011;55052;52.056;5.296;2023-05-02T14:55:18;8.52;;;2.30;;
68234;SDS011;55052;52.056;5.296;2023-05-02T14:57:44;6.68;;;2.17;;
68234;SDS011;55052;52.056;5.296;2023-05-02T15:00:12;6.65;;;2.10;;
68234;SDS011;55052;52.056;5.296;2023-05-02T15:02:40;5.50;;;2.08;;
68234;SDS011;55052;52.056;5.296;2023-05-02T15:05:07;5.82;;;2.05;;
68234;SDS011;55052;52.056;5.296;2023-05-02T15:07:37;4.72;;;1.98;;
68234;SDS011;55052;52.056;5.296;2023-05-02T15:10:04;8.13;;;2.30;;
68234;SDS011;55052;52.056;5.296;2023-05-02T15:12:32;6.75;;;2.22;;
68234;SDS011;55052;52.056;5.296;2023-05-02T15:14:59;7.22;;;1.92;;
68234;SDS011;55052;52.056;5.296;2023-05-02T15:17:26;5.18;;;2.10;;
68234;SDS011;55052;52.056;5.296;2023-05-02T15:19:52;6.93;;;1.98;;
68234;SDS011;55052;52.056;5.296;2023-05-02T15:22:23;5.05;;;1.77;;
68234;SDS011;55052;52.056;5.296;2023-05-02T15:24:51;12.45;;;2.60;;
68234;SDS011;55052;52.056;5.296;2023-05-02T15:27:18;5.93;;;1.90;;
68234;SDS011;55052;52.056;5.296;2023-05-02T15:29:44;9.93;;;2.40;;
68234;SDS011;55052;52.056;5.296;2023-05-02T15:32:11;6.90;;;2.30;;
68234;SDS011;55052;52.056;5.296;2023-05-02T15:34:38;5.20;;;2.08;;
68234;SDS011;55052;52.056;5.296;2023-05-02T15:37:06;6.47;;;2.10;;
68234;SDS011;55052;52.056;5.296;2023-05-02T15:39:33;7.97;;;1.92;;
68234;SDS011;55052;52.056;5.296;2023-05-02T15:42:01;8.25;;;1.80;;
68234;SDS011;55052;52.056;5.296;2023-05-02T15:44:32;7.17;;;1.97;;
68234;SDS011;55052;52.056;5.296;2023-05-02T15:47:02;6.90;;;1.88;;